Time;durP1;ratioP1;P1;durP2;ratioP2;P2;SDS_P1;SDS_P2;PMS_P1;PMS_P2;Temp;Humidity;BMP_temperature;BMP_pressure;BME280_temperature;BME280_humidity;BME280_pressure;Samples;Min_cycle;Max_cycle;Signal;HPM_P1;HPM_P2
2024/03/24 00:01:40;;;;;;;;;;;;;;;20.72;28.16;97271.91;4918451;29;1071;-76
2024/03/24 00:04:06;;;;;;;;;;;;;;;20.89;27.83;97274.59;4948073;28;969;-76
2024/03/24 00:06:32;;;;;;;;;;;;;;;20.39;28.37;97271.41;4979733;28;983;-76
2024/03/24 00:08:57;;;;;;;;;;;;;;;20.12;29.07;97268.28;4978668;28;939;-76
2024/03/24 00:11:23;;;;;;;;;;;;;;;20.63;28.40;97254.88;4963209;28;1903;-76
2024/03/24 00:13:48;;;;;;;;;;;;;;;20.79;27.84;97249.06;4975560;28;985;-76
2024/03/24 00:16:14;;;;;;;;;;;;;;;20.99;27.61;97256.47;4975862;28;999;-75
2024/03/24 00:18:40;;;;;;;;;;;;;;;21.12;27.52;97248.69;4963005;28;926;-76
2024/03/24 00:21:06;;;;;;;;;;;;;;;20.73;28.00;97250.91;5015309;28;999;-76
2024/03/24 00:23:32;;;;;;;;;;;;;;;20.79;27.75;97240.59;5014786;28;1019;-76
2024/03/24 00:25:58;;;;;;;;;;;;;;;20.83;27.87;97240.47;4998345;28;1223;-76
2024/03/24 00:28:23;;;;;;;;;;;;;;;20.92;28.00;97243.34;5013552;28;1191;-77
2024/03/24 00:30:49;;;;;;;;;;;;;;;20.90;27.90;97230.94;4998542;28;1955;-76
2024/03/24 00:33:14;;;;;;;;;;;;;;;21.00;27.84;97229.75;4997845;28;1136;-76
2024/03/24 00:35:40;;;;;;;;;;;;;;;20.41;28.76;97234.19;4998347;28;974;-76
2024/03/24 00:38:07;;;;;;;;;;;;;;;20.64;27.94;97228.19;4997958;28;1464;-76
2024/03/24 00:40:32;;;;;;;;;;;;;;;20.86;27.76;97227.44;4998461;28;1231;-76
2024/03/24 00:42:58;;;;;;;;;;;;;;;20.85;28.10;97223.81;5014222;28;901;-76
2024/03/24 00:45:24;;;;;;;;;;;;;;;20.90;27.97;97226.06;5016013;28;921;-75
2024/03/24 00:47:51;;;;;;;;;;;;;;;20.89;27.96;97209.56;5014433;28;973;-76
2024/03/24 00:50:16;;;;;;;;;;;;;;;21.15;27.74;97219.50;5014416;28;1085;-76
2024/03/24 00:52:43;;;;;;;;;;;;;;;20.85;27.99;97208.91;5014308;28;1970;-76
2024/03/24 00:55:08;;;;;;;;;;;;;;;20.83;27.81;97215.00;5014199;28;1036;-76
2024/03/24 00:57:34;;;;;;;;;;;;;;;20.60;28.35;97204.91;4998233;28;957;-76
2024/03/24 01:00:00;;;;;;;;;;;;;;;20.65;28.22;97209.19;4997605;28;927;-77
2024/03/24 01:02:26;;;;;;;;;;;;;;;20.86;28.34;97199.16;4978572;28;1010;-77
2024/03/24 01:04:52;;;;;;;;;;;;;;;21.09;27.92;97190.22;4978468;28;977;-77
2024/03/24 01:07:17;;;;;;;;;;;;;;;20.68;28.77;97186.47;4994686;28;1214;-75
2024/03/24 01:09:43;;;;;;;;;;;;;;;20.60;28.64;97187.94;4994530;28;1224;-76
2024/03/24 01:12:08;;;;;;;;;;;;;;;20.84;28.48;97182.66;4978309;28;1978;-76
2024/03/24 01:14:34;;;;;;;;;;;;;;;20.59;28.77;97189.22;4994494;28;931;-76
2024/03/24 01:17:00;;;;;;;;;;;;;;;20.71;28.39;97179.88;4994534;28;934;-76
2024/03/24 01:19:26;;;;;;;;;;;;;;;20.75;28.24;97172.06;4994480;28;1007;-76
2024/03/24 01:21:52;;;;;;;;;;;;;;;20.71;28.46;97181.91;4994905;28;959;-76
2024/03/24 01:24:17;;;;;;;;;;;;;;;20.85;28.64;97177.78;4978307;28;1346;-76
2024/03/24 01:26:43;;;;;;;;;;;;;;;20.79;28.60;97181.22;4963934;28;1139;-76
2024/03/24 01:29:10;;;;;;;;;;;;;;;20.91;28.23;97175.94;4997502;28;998;-76
2024/03/24 01:31:35;;;;;;;;;;;;;;;20.90;28.24;97172.34;5013800;28;1980;-76
2024/03/24 01:34:01;;;;;;;;;;;;;;;20.75;28.51;97163.59;5024792;28;966;-76
2024/03/24 01:36:26;;;;;;;;;;;;;;;20.32;29.05;97169.16;5035072;28;977;-76
2024/03/24 01:38:52;;;;;;;;;;;;;;;20.64;28.80;97163.19;5035703;28;1110;-76
2024/03/24 01:41:18;;;;;;;;;;;;;;;20.81;28.52;97161.72;5039388;28;908;-76
2024/03/24 01:43:43;;;;;;;;;;;;;;;20.89;28.52;97155.84;5004457;28;980;-74
2024/03/24 01:46:09;;;;;;;;;;;;;;;20.92;28.55;97152.06;5039678;28;951;-76
2024/03/24 01:48:34;;;;;;;;;;;;;;;21.12;28.02;97158.19;5039477;28;941;-76
2024/03/24 01:51:01;;;;;;;;;;;;;;;21.19;28.02;97146.59;5038443;28;1887;-76
2024/03/24 01:53:26;;;;;;;;;;;;;;;20.94;28.34;97156.03;4981134;28;1003;-76
2024/03/24 01:55:52;;;;;;;;;;;;;;;20.69;28.79;97148.47;4998060;28;975;-77
2024/03/24 01:58:19;;;;;;;;;;;;;;;20.92;28.16;97146.41;4997108;28;1274;-76
2024/03/24 02:00:45;;;;;;;;;;;;;;;20.85;28.39;97155.16;5014311;28;1021;-76
2024/03/24 02:03:11;;;;;;;;;;;;;;;20.73;28.93;97137.81;5013981;28;964;-76
2024/03/24 02:05:36;;;;;;;;;;;;;;;21.11;28.18;97133.97;4997916;28;978;-75
2024/03/24 02:08:02;;;;;;;;;;;;;;;20.87;28.38;97130.81;4997633;28;1143;-76
2024/03/24 02:10:28;;;;;;;;;;;;;;;20.41;29.06;97132.47;5013782;28;1106;-76
2024/03/24 02:12:54;;;;;;;;;;;;;;;20.63;28.42;97133.34;4997460;28;1887;-76
2024/03/24 02:15:19;;;;;;;;;;;;;;;20.75;28.62;97132.47;4981087;28;1108;-76
2024/03/24 02:17:45;;;;;;;;;;;;;;;20.74;28.66;97122.44;5013472;28;988;-77
2024/03/24 02:20:13;;;;;;;;;;;;;;;20.93;28.51;97133.84;4997325;28;952;-75
2024/03/24 02:22:39;;;;;;;;;;;;;;;20.94;28.44;97135.44;4997391;28;1237;-76
2024/03/24 02:25:05;;;;;;;;;;;;;;;20.62;28.67;97128.91;5043451;28;972;-76
2024/03/24 02:27:31;;;;;;;;;;;;;;;20.95;28.42;97131.38;5056194;28;1084;-75
2024/03/24 02:29:57;;;;;;;;;;;;;;;20.81;28.22;97127.81;5023376;28;969;-76
2024/03/24 02:32:22;;;;;;;;;;;;;;;20.50;28.67;97126.94;5039641;28;1914;-76
2024/03/24 02:34:48;;;;;;;;;;;;;;;20.99;28.64;97129.19;5007057;28;1297;-76
2024/03/24 02:37:13;;;;;;;;;;;;;;;21.14;28.38;97127.41;5056622;28;900;-75
2024/03/24 02:39:39;;;;;;;;;;;;;;;20.92;28.63;97127.41;5056070;28;994;-76
2024/03/24 02:42:04;;;;;;;;;;;;;;;20.89;28.52;97130.38;5000182;28;929;-76
2024/03/24 02:44:30;;;;;;;;;;;;;;;20.71;28.58;97128.22;5032497;28;1048;-76
2024/03/24 02:46:56;;;;;;;;;;;;;;;20.98;28.53;97124.78;5000277;28;1223;-76
2024/03/24 02:49:21;;;;;;;;;;;;;;;20.78;28.43;97120.25;5032998;28;1011;-76
2024/03/24 02:51:47;;;;;;;;;;;;;;;20.79;28.90;97118.22;5032266;28;1879;-77
2024/03/24 02:54:12;;;;;;;;;;;;;;;21.01;28.44;97112.53;4996684;28;1144;-76
2024/03/24 02:56:38;;;;;;;;;;;;;;;21.26;28.16;97112.38;4997133;28;999;-76
2024/03/24 02:59:03;;;;;;;;;;;;;;;20.98;28.57;97107.78;4994532;28;1013;-76
2024/03/24 03:01:29;;;;;;;;;;;;;;;20.58;28.92;97108.50;4977088;28;992;-76
2024/03/24 03:03:55;;;;;;;;;;;;;;;20.67;28.62;97104.94;4976721;28;1044;-76
2024/03/24 03:06:20;;;;;;;;;;;;;;;20.86;28.38;97105.84;4993344;28;1013;-76
2024/03/24 03:08:46;;;;;;;;;;;;;;;20.81;29.00;97102.34;4960665;28;1446;-76
2024/03/24 03:11:12;;;;;;;;;;;;;;;21.18;28.25;97102.56;4979931;28;1974;-76
2024/03/24 03:13:37;;;;;;;;;;;;;;;21.15;28.12;97092.19;5011000;28;947;-77
2024/03/24 03:16:03;;;;;;;;;;;;;;;21.08;28.25;97095.28;5016515;28;951;-75
2024/03/24 03:18:28;;;;;;;;;;;;;;;20.81;28.60;97087.44;4999326;28;1055;-77
2024/03/24 03:20:54;;;;;;;;;;;;;;;20.54;29.00;97090.88;4999935;28;1472;-77
2024/03/24 03:23:20;;;;;;;;;;;;;;;20.90;28.28;97089.53;4999056;28;1125;-76
2024/03/24 03:25:45;;;;;;;;;;;;;;;20.87;28.67;97087.63;5015877;28;937;-76
2024/03/24 03:28:11;;;;;;;;;;;;;;;20.92;28.78;97081.38;4982947;28;1187;-76
2024/03/24 03:30:36;;;;;;;;;;;;;;;21.11;28.17;97087.94;4977949;28;958;-76
2024/03/24 03:33:03;;;;;;;;;;;;;;;21.09;28.22;97085.56;4979944;28;1977;-76
2024/03/24 03:35:29;;;;;;;;;;;;;;;20.56;28.93;97085.53;4980023;28;1231;-76
2024/03/24 03:37:55;;;;;;;;;;;;;;;20.85;28.50;97088.09;4995697;28;987;-76
2024/03/24 03:40:21;;;;;;;;;;;;;;;20.71;28.54;97086.59;4979696;28;992;-77
2024/03/24 03:42:46;;;;;;;;;;;;;;;20.75;28.37;97087.25;4979872;28;994;-77
2024/03/24 03:45:15;;;;;;;;;;;;;;;20.89;28.37;97082.31;4995820;28;939;-77
2024/03/24 03:47:40;;;;;;;;;;;;;;;21.01;28.55;97085.03;4948627;28;985;-76
2024/03/24 03:50:13;;;;;;;;;;;;;;;20.98;28.39;97073.88;4937552;29;1340;-76
2024/03/24 03:52:39;;;;;;;;;;;;;;;20.98;28.35;97079.53;4923003;29;1979;-77
2024/03/24 03:55:11;;;;;;;;;;;;;;;20.67;29.03;97077.44;4937380;29;1057;-76
2024/03/24 03:57:40;;;;;;;;;;;;;;;20.64;28.76;97081.22;4937699;29;930;-76
2024/03/24 04:00:10;;;;;;;;;;;;;;;20.66;28.99;97081.53;4937554;29;995;-76
2024/03/24 04:02:40;;;;;;;;;;;;;;;20.98;28.38;97077.47;4971284;28;985;-76
2024/03/24 04:05:12;;;;;;;;;;;;;;;21.03;28.28;97076.09;4928048;28;1235;-75
2024/03/24 04:07:38;;;;;;;;;;;;;;;21.19;28.08;97064.56;4937381;29;1042;-76
2024/03/24 04:10:05;;;;;;;;;;;;;;;20.71;28.92;97057.53;4937136;29;1177;-77
2024/03/24 04:12:31;;;;;;;;;;;;;;;20.93;28.24;97065.97;4937551;29;1906;-76
2024/03/24 04:15:00;;;;;;;;;;;;;;;20.96;28.23;97070.72;4937508;29;938;-77
2024/03/24 04:17:26;;;;;;;;;;;;;;;21.00;28.33;97058.03;4937616;29;1019;-76
2024/03/24 04:19:54;;;;;;;;;;;;;;;20.95;28.64;97064.28;4937336;29;993;-76
2024/03/24 04:22:20;;;;;;;;;;;;;;;20.82;28.95;97066.41;4937638;29;936;-76
2024/03/24 04:24:46;;;;;;;;;;;;;;;20.32;29.33;97058.97;4936824;29;990;-78
2024/03/24 04:27:11;;;;;;;;;;;;;;;20.64;28.68;97066.28;4928771;29;1257;-77
2024/03/24 04:29:37;;;;;;;;;;;;;;;20.73;28.71;97061.50;4921293;29;986;-78
2024/03/24 04:32:03;;;;;;;;;;;;;;;20.89;28.60;97059.69;4936990;29;1911;-77
2024/03/24 04:34:29;;;;;;;;;;;;;;;21.00;28.40;97058.03;4921221;29;1076;-76
2024/03/24 04:36:54;;;;;;;;;;;;;;;21.09;28.42;97051.63;4925474;29;1983;-76
2024/03/24 04:39:21;;;;;;;;;;;;;;;20.96;28.49;97053.75;4899664;29;1897;-76
2024/03/24 04:41:47;;;;;;;;;;;;;;;20.74;28.78;97048.94;4914732;29;977;-77
2024/03/24 04:44:13;;;;;;;;;;;;;;;20.97;28.10;97049.66;4902158;29;1246;-77
2024/03/24 04:46:38;;;;;;;;;;;;;;;20.89;28.31;97042.72;4918205;29;1029;-77
2024/03/24 04:49:07;;;;;;;;;;;;;;;20.62;28.97;97046.16;4933274;29;1023;-76
2024/03/24 04:51:33;;;;;;;;;;;;;;;20.91;28.85;97046.66;4933714;29;1919;-77
2024/03/24 04:53:59;;;;;;;;;;;;;;;20.65;29.00;97046.03;4917232;29;1711;-76
2024/03/24 04:56:24;;;;;;;;;;;;;;;20.69;28.81;97048.75;4918375;29;986;-76
2024/03/24 04:58:50;;;;;;;;;;;;;;;20.64;28.82;97044.47;4917830;29;1071;-77
2024/03/24 05:01:16;;;;;;;;;;;;;;;20.72;28.85;97044.97;4933795;29;947;-76
2024/03/24 05:03:41;;;;;;;;;;;;;;;20.96;28.78;97053.75;4924204;28;998;-77
2024/03/24 05:06:07;;;;;;;;;;;;;;;20.91;28.79;97049.47;4959368;28;1047;-76
2024/03/24 05:08:41;;;;;;;;;;;;;;;21.10;28.25;97039.06;5005697;28;1369;-76
2024/03/24 05:11:09;;;;;;;;;;;;;;;20.90;28.83;97044.31;5035501;28;1972;-77
2024/03/24 05:13:38;;;;;;;;;;;;;;;20.83;28.73;97051.03;5035851;28;1180;-77
2024/03/24 05:16:07;;;;;;;;;;;;;;;20.83;28.52;97055.88;5071672;28;1003;-77
2024/03/24 05:18:34;;;;;;;;;;;;;;;20.65;28.90;97057.34;5005650;28;939;-77
2024/03/24 05:20:59;;;;;;;;;;;;;;;20.89;28.77;97057.66;5055958;28;939;-77
2024/03/24 05:23:25;;;;;;;;;;;;;;;20.98;28.54;97065.38;5039312;28;1016;-77
2024/03/24 05:25:54;;;;;;;;;;;;;;;20.91;28.83;97062.84;5038032;28;1353;-77
2024/03/24 05:28:19;;;;;;;;;;;;;;;20.81;28.84;97065.59;5037788;28;1325;-76
2024/03/24 05:30:51;;;;;;;;;;;;;;;20.46;29.16;97055.59;5039237;28;954;-77
2024/03/24 05:33:16;;;;;;;;;;;;;;;20.50;29.51;97061.94;5022192;28;911;-77
2024/03/24 05:35:42;;;;;;;;;;;;;;;20.96;28.54;97059.41;5039850;28;1134;-76
2024/03/24 05:38:08;;;;;;;;;;;;;;;21.04;28.75;97053.03;5039310;28;960;-76
2024/03/24 05:40:33;;;;;;;;;;;;;;;20.84;28.99;97051.81;5021730;28;999;-76
2024/03/24 05:42:59;;;;;;;;;;;;;;;20.48;29.34;97058.81;5038297;28;1436;-76
2024/03/24 05:45:24;;;;;;;;;;;;;;;20.67;28.96;97042.75;5004093;28;968;-77
2024/03/24 05:47:50;;;;;;;;;;;;;;;20.59;29.08;97036.59;5039173;28;1123;-76
2024/03/24 05:50:16;;;;;;;;;;;;;;;20.85;28.80;97042.06;5039375;28;976;-75
2024/03/24 05:52:42;;;;;;;;;;;;;;;20.94;28.65;97039.31;5037868;28;1975;-76
2024/03/24 05:55:12;;;;;;;;;;;;;;;20.69;28.95;97041.03;5037838;28;1118;-76
2024/03/24 05:57:38;;;;;;;;;;;;;;;20.68;28.99;97039.47;5038574;28;1349;-76
2024/03/24 06:00:05;;;;;;;;;;;;;;;20.42;29.33;97038.81;5001536;28;902;-76
2024/03/24 06:02:36;;;;;;;;;;;;;;;20.64;29.09;97033.16;5017979;28;963;-76
2024/03/24 06:05:02;;;;;;;;;;;;;;;20.73;29.05;97047.34;5016930;28;1646;-76
2024/03/24 06:07:29;;;;;;;;;;;;;;;21.01;28.68;97045.44;5016923;28;1002;-76
2024/03/24 06:09:54;;;;;;;;;;;;;;;21.05;28.51;97045.31;5000689;28;981;-76
2024/03/24 06:12:21;;;;;;;;;;;;;;;21.19;28.39;97044.75;5000488;28;1972;-76
2024/03/24 06:14:47;;;;;;;;;;;;;;;20.66;29.02;97041.97;5001680;28;1503;-76
2024/03/24 06:17:13;;;;;;;;;;;;;;;20.79;28.97;97042.69;5020061;28;980;-76
2024/03/24 06:19:40;;;;;;;;;;;;;;;20.85;28.74;97047.72;5001531;28;1501;-76
2024/03/24 06:22:06;;;;;;;;;;;;;;;20.57;28.79;97044.72;4977276;28;950;-77
2024/03/24 06:24:31;;;;;;;;;;;;;;;20.77;29.04;97047.97;4961283;28;1081;-76
2024/03/24 06:26:57;;;;;;;;;;;;;;;21.06;28.51;97052.56;4975873;28;1201;-77
2024/03/24 06:29:22;;;;;;;;;;;;;;;20.91;28.76;97057.97;4961086;28;1128;-76
2024/03/24 06:31:48;;;;;;;;;;;;;;;20.84;28.90;97051.81;4977414;28;1906;-76
2024/03/24 06:34:14;;;;;;;;;;;;;;;20.87;28.81;97051.66;4956576;28;1576;-76
2024/03/24 06:36:40;;;;;;;;;;;;;;;19.94;29.29;96947.75;4960020;28;1252;-76
2024/03/24 06:39:06;;;;;;;;;;;;;;;20.57;29.07;97056.03;4960740;28;1008;-76
2024/03/24 06:41:38;;;;;;;;;;;;;;;20.90;29.05;97044.31;4960916;28;1025;-76
2024/03/24 06:44:12;;;;;;;;;;;;;;;21.13;28.38;97051.47;4960857;28;959;-76
2024/03/24 06:46:39;;;;;;;;;;;;;;;20.88;28.77;97046.78;4977056;28;993;-76
2024/03/24 06:49:04;;;;;;;;;;;;;;;20.64;29.20;97044.47;4992938;28;1430;-77
2024/03/24 06:51:30;;;;;;;;;;;;;;;20.71;28.74;97049.84;4976663;28;1907;-76
2024/03/24 06:53:55;;;;;;;;;;;;;;;20.53;29.32;97044.88;4991337;28;1552;-77
2024/03/24 06:56:21;;;;;;;;;;;;;;;20.68;29.37;97050.00;4996168;28;1246;-76
2024/03/24 06:58:47;;;;;;;;;;;;;;;20.93;28.93;97049.81;4979696;28;1016;-77
2024/03/24 07:01:12;;;;;;;;;;;;;;;20.94;28.70;97053.44;4980103;28;851;-76
2024/03/24 07:03:38;;;;;;;;;;;;;;;21.00;28.73;97048.75;4979872;28;928;-76
2024/03/24 07:06:05;;;;;;;;;;;;;;;20.88;28.95;97052.44;4980171;28;1100;-76
2024/03/24 07:08:31;;;;;;;;;;;;;;;21.00;28.50;97045.94;5012781;28;1497;-76
2024/03/24 07:10:56;;;;;;;;;;;;;;;20.68;28.75;97039.47;5033725;28;1985;-76
2024/03/24 07:13:22;;;;;;;;;;;;;;;21.11;28.79;97045.50;5037798;28;936;-76
2024/03/24 07:15:48;;;;;;;;;;;;;;;21.21;28.35;97035.81;5019799;28;939;-76
2024/03/24 07:18:13;;;;;;;;;;;;;;;21.06;28.49;97039.19;5036454;28;1111;-76
2024/03/24 07:20:39;;;;;;;;;;;;;;;20.80;29.03;97034.97;5037548;28;958;-76
2024/03/24 07:23:04;;;;;;;;;;;;;;;20.69;29.01;97037.44;5016348;28;1375;-76
2024/03/24 07:25:30;;;;;;;;;;;;;;;20.89;29.04;97037.88;5049059;28;912;-76
2024/03/24 07:27:56;;;;;;;;;;;;;;;21.07;28.58;97037.16;5049648;28;1201;-76
2024/03/24 07:30:21;;;;;;;;;;;;;;;20.85;29.22;97037.19;5050172;28;973;-77
2024/03/24 07:32:47;;;;;;;;;;;;;;;20.98;29.10;97039.94;5049497;28;1909;-76
2024/03/24 07:35:13;;;;;;;;;;;;;;;20.89;28.81;97043.53;5049365;28;930;-76
2024/03/24 07:37:39;;;;;;;;;;;;;;;20.76;28.90;97040.75;5029727;28;1439;-76
2024/03/24 07:40:04;;;;;;;;;;;;;;;20.75;29.09;97038.41;5035511;28;1430;-76
2024/03/24 07:42:31;;;;;;;;;;;;;;;20.61;29.02;97045.38;5036031;28;1004;-76
2024/03/24 07:44:57;;;;;;;;;;;;;;;20.65;28.86;97046.03;5037097;28;904;-76
2024/03/24 07:47:25;;;;;;;;;;;;;;;20.64;29.01;97038.81;5036059;28;1110;-76
2024/03/24 07:49:54;;;;;;;;;;;;;;;20.43;29.81;97045.25;5019718;28;1052;-76
2024/03/24 07:52:20;;;;;;;;;;;;;;;20.93;28.98;97043.34;4998435;28;1914;-76
2024/03/24 07:54:45;;;;;;;;;;;;;;;21.20;28.48;97040.66;5013745;28;1363;-76
2024/03/24 07:57:11;;;;;;;;;;;;;;;21.26;28.47;97038.81;5015007;28;1013;-76
2024/03/24 07:59:36;;;;;;;;;;;;;;;20.75;29.24;97036.38;5014695;28;1327;-76
2024/03/24 08:02:02;;;;;;;;;;;;;;;20.76;29.17;97029.44;4982363;28;1132;-76
2024/03/24 08:04:27;;;;;;;;;;;;;;;20.67;29.48;97037.88;5014210;28;980;-76
2024/03/24 08:06:53;;;;;;;;;;;;;;;20.62;29.57;97023.56;4998565;28;984;-76
2024/03/24 08:09:19;;;;;;;;;;;;;;;20.79;29.12;97036.25;5012922;28;1497;-76
2024/03/24 08:11:44;;;;;;;;;;;;;;;21.03;28.83;97025.19;4994749;28;1891;-77
2024/03/24 08:14:10;;;;;;;;;;;;;;;20.80;29.32;97018.00;5011068;28;993;-76
2024/03/24 08:16:36;;;;;;;;;;;;;;;20.81;28.77;97026.03;4978361;28;948;-76
2024/03/24 08:19:01;;;;;;;;;;;;;;;20.50;29.45;97028.81;4994684;28;1004;-77
2024/03/24 08:21:27;;;;;;;;;;;;;;;20.76;29.31;97020.97;4994875;28;1229;-76
2024/03/24 08:23:52;;;;;;;;;;;;;;;20.95;29.18;97007.72;5021129;28;1231;-76
2024/03/24 08:26:18;;;;;;;;;;;;;;;21.38;28.42;97017.31;5015583;28;1445;-76
2024/03/24 08:28:43;;;;;;;;;;;;;;;20.74;29.11;97009.34;5015104;28;1387;-76
2024/03/24 08:31:09;;;;;;;;;;;;;;;20.90;29.13;97005.50;5015306;28;1906;-76
2024/03/24 08:33:35;;;;;;;;;;;;;;;20.94;28.79;97006.16;4998658;28;952;-76
2024/03/24 08:36:00;;;;;;;;;;;;;;;20.97;28.69;97010.06;5032151;28;1262;-76
2024/03/24 08:38:26;;;;;;;;;;;;;;;20.84;29.07;97017.88;5016329;28;940;-76
2024/03/24 08:40:52;;;;;;;;;;;;;;;20.85;29.20;96999.66;5021657;28;1397;-76
2024/03/24 08:43:17;;;;;;;;;;;;;;;21.17;28.96;97002.00;5036151;28;914;-75
2024/03/24 08:45:43;;;;;;;;;;;;;;;20.98;29.05;97000.34;5035165;28;943;-76
2024/03/24 08:48:09;;;;;;;;;;;;;;;20.75;29.36;96993.97;5036056;28;1207;-75
2024/03/24 08:50:35;;;;;;;;;;;;;;;20.96;29.08;97008.50;5032917;28;1346;-75
2024/03/24 08:53:00;;;;;;;;;;;;;;;20.83;28.80;97004.97;5032725;28;1980;-76
2024/03/24 08:55:26;;;;;;;;;;;;;;;20.70;28.94;97003.03;5035265;28;945;-76
2024/03/24 08:57:51;;;;;;;;;;;;;;;20.62;29.37;97001.72;5035766;28;1574;-76
2024/03/24 09:00:17;;;;;;;;;;;;;;;20.94;29.23;96999.72;5034310;28;1263;-77
2024/03/24 09:02:43;;;;;;;;;;;;;;;21.09;28.71;96995.06;5048275;28;1497;-76
2024/03/24 09:05:08;;;;;;;;;;;;;;;21.20;28.80;96995.41;5034616;28;1114;-76
2024/03/24 09:07:34;;;;;;;;;;;;;;;20.84;29.08;96995.25;5018420;28;1461;-76
2024/03/24 09:10:00;;;;;;;;;;;;;;;20.87;29.13;96992.28;5034724;28;1764;-76
2024/03/24 09:12:25;;;;;;;;;;;;;;;20.81;29.03;96997.75;5068181;28;1901;-76
2024/03/24 09:14:51;;;;;;;;;;;;;;;20.66;29.46;96988.25;5051211;28;1106;-76
2024/03/24 09:17:16;;;;;;;;;;;;;;;20.80;29.03;96984.88;5035524;28;926;-76
2024/03/24 09:19:42;;;;;;;;;;;;;;;20.85;29.03;96979.88;5051073;28;1129;-77
2024/03/24 09:22:08;;;;;;;;;;;;;;;21.17;28.66;96979.34;5018543;28;1241;-76
2024/03/24 09:24:33;;;;;;;;;;;;;;;20.93;29.36;96981.16;5034974;28;900;-76
2024/03/24 09:27:00;;;;;;;;;;;;;;;21.18;28.67;96978.09;5047082;28;2035;-76
2024/03/24 09:29:25;;;;;;;;;;;;;;;20.75;29.29;96971.34;5013236;28;1459;-76
2024/03/24 09:31:51;;;;;;;;;;;;;;;20.93;29.16;96972.66;5012143;28;1918;-76
2024/03/24 09:34:17;;;;;;;;;;;;;;;20.69;29.41;96978.06;5013382;28;911;-76
2024/03/24 09:36:42;;;;;;;;;;;;;;;20.88;29.09;96967.63;5013546;28;1004;-76
2024/03/24 09:39:08;;;;;;;;;;;;;;;20.81;29.32;96974.34;5013523;28;960;-76
2024/03/24 09:41:36;;;;;;;;;;;;;;;20.91;29.40;96966.69;5013496;28;968;-77
2024/03/24 09:44:03;;;;;;;;;;;;;;;21.13;28.85;96972.25;5013525;28;1029;-76
2024/03/24 09:46:29;;;;;;;;;;;;;;;21.01;28.95;96971.13;5013245;28;1951;-77
2024/03/24 09:48:55;;;;;;;;;;;;;;;20.85;29.46;96969.34;5013443;28;1037;-76
2024/03/24 09:51:21;;;;;;;;;;;;;;;20.59;29.65;96963.09;4980519;28;1918;-76
2024/03/24 09:53:47;;;;;;;;;;;;;;;20.80;29.36;96962.25;5013506;28;925;-76
2024/03/24 09:56:12;;;;;;;;;;;;;;;20.73;29.17;96968.22;5013334;28;952;-76
2024/03/24 09:58:38;;;;;;;;;;;;;;;20.85;29.46;96963.69;5013087;28;1075;-76
2024/03/24 10:01:04;;;;;;;;;;;;;;;20.91;29.40;96961.81;5029089;28;1992;-76
2024/03/24 10:03:30;;;;;;;;;;;;;;;20.71;29.33;96953.72;5034953;28;1964;-76
2024/03/24 10:05:56;;;;;;;;;;;;;;;20.85;29.43;96951.59;5037710;28;1687;-76
2024/03/24 10:08:22;;;;;;;;;;;;;;;20.94;29.23;96948.81;5021430;28;1505;-76
2024/03/24 10:10:48;;;;;;;;;;;;;;;20.63;29.71;96949.63;5037703;28;973;-76
2024/03/24 10:13:13;;;;;;;;;;;;;;;20.66;29.54;96951.50;5037383;28;1902;-76
2024/03/24 10:15:39;;;;;;;;;;;;;;;20.94;29.32;96943.94;5037307;28;943;-77
2024/03/24 10:18:06;;;;;;;;;;;;;;;20.89;29.20;96935.28;5037239;28;915;-75
2024/03/24 10:20:32;;;;;;;;;;;;;;;20.89;29.05;96932.47;5053046;28;1941;-76
2024/03/24 10:22:58;;;;;;;;;;;;;;;20.71;29.37;96933.94;5054475;28;913;-76
2024/03/24 10:25:27;;;;;;;;;;;;;;;20.66;29.61;96931.72;4996647;28;1086;-76
2024/03/24 10:27:53;;;;;;;;;;;;;;;20.67;29.33;96930.47;4996381;28;1065;-75
2024/03/24 10:30:19;;;;;;;;;;;;;;;21.05;29.00;96932.19;4979761;28;1277;-76
2024/03/24 10:32:44;;;;;;;;;;;;;;;21.03;29.01;96929.03;4996603;28;1899;-77
2024/03/24 10:35:10;;;;;;;;;;;;;;;20.93;29.06;96924.59;4996850;28;1010;-76
2024/03/24 10:37:36;;;;;;;;;;;;;;;20.64;29.58;96917.28;4996685;28;1028;-76
2024/03/24 10:40:02;;;;;;;;;;;;;;;20.62;29.41;96910.50;4976995;28;984;-76
2024/03/24 10:42:28;;;;;;;;;;;;;;;20.79;29.37;96903.38;4976377;28;1773;-76
2024/03/24 10:44:57;;;;;;;;;;;;;;;20.95;29.25;96900.25;4992855;28;936;-76
2024/03/24 10:47:23;;;;;;;;;;;;;;;20.95;29.05;96888.16;4992639;28;1022;-76
2024/03/24 10:49:49;;;;;;;;;;;;;;;20.70;29.70;96892.81;4976824;28;971;-76
2024/03/24 10:52:14;;;;;;;;;;;;;;;20.64;29.43;96891.84;4992884;28;1910;-76
2024/03/24 10:54:40;;;;;;;;;;;;;;;20.50;29.75;96887.53;4992768;28;1048;-76
2024/03/24 10:57:05;;;;;;;;;;;;;;;20.73;29.41;96888.28;4991657;28;1913;-76
2024/03/24 10:59:31;;;;;;;;;;;;;;;20.91;29.48;96881.88;5027562;28;992;-76
2024/03/24 11:01:57;;;;;;;;;;;;;;;21.21;28.79;96883.81;4999464;28;973;-76
2024/03/24 11:04:22;;;;;;;;;;;;;;;21.08;28.93;96880.31;4982932;28;1150;-76
2024/03/24 11:06:49;;;;;;;;;;;;;;;20.79;29.42;96881.53;4999423;28;946;-75
2024/03/24 11:09:15;;;;;;;;;;;;;;;20.89;29.14;96875.91;4983417;28;982;-76
2024/03/24 11:11:40;;;;;;;;;;;;;;;20.89;29.17;96879.53;4994549;28;1978;-76
2024/03/24 11:14:07;;;;;;;;;;;;;;;20.71;29.48;96866.09;5011890;28;1830;-76
2024/03/24 11:16:32;;;;;;;;;;;;;;;20.87;29.25;96865.03;5002010;28;961;-76
2024/03/24 11:19:10;;;;;;;;;;;;;;;20.91;29.21;96853.59;5036464;28;1186;-76
2024/03/24 11:21:39;;;;;;;;;;;;;;;20.97;29.44;96851.72;5002479;28;1321;-76
2024/03/24 11:24:09;;;;;;;;;;;;;;;20.90;29.35;96847.16;4979519;28;1089;-76
2024/03/24 11:26:34;;;;;;;;;;;;;;;20.89;29.27;96839.16;4979189;28;1144;-76
2024/03/24 11:29:00;;;;;;;;;;;;;;;20.77;29.24;96838.78;4977837;28;1775;-76
2024/03/24 11:31:26;;;;;;;;;;;;;;;20.70;29.55;96836.28;4978993;28;1970;-76
2024/03/24 11:34:03;;;;;;;;;;;;;;;20.92;29.51;96830.50;4995443;28;948;-76
2024/03/24 11:36:29;;;;;;;;;;;;;;;21.05;29.28;96824.72;4995066;28;1962;-76
2024/03/24 11:38:56;;;;;;;;;;;;;;;21.12;29.09;96832.88;4979039;28;1185;-76
2024/03/24 11:41:23;;;;;;;;;;;;;;;20.86;29.28;96825.94;4979058;28;989;-76
2024/03/24 11:43:52;;;;;;;;;;;;;;;20.76;29.58;96820.25;4979003;28;1119;-76
2024/03/24 11:46:18;;;;;;;;;;;;;;;20.72;29.59;96813.19;4979017;28;1023;-75
2024/03/24 11:48:45;;;;;;;;;;;;;;;21.09;29.11;96814.03;4935712;29;1886;-76
2024/03/24 11:51:12;;;;;;;;;;;;;;;21.04;29.21;96811.84;4937676;29;1980;-76
2024/03/24 11:53:37;;;;;;;;;;;;;;;21.23;28.86;96812.63;4936946;29;987;-76
2024/03/24 11:56:04;;;;;;;;;;;;;;;20.90;29.19;96804.75;4974067;28;998;-76
2024/03/24 11:58:30;;;;;;;;;;;;;;;20.89;29.55;96808.06;4978843;28;1104;-76
2024/03/24 12:00:55;;;;;;;;;;;;;;;20.61;29.58;96807.19;4995343;28;988;-75
2024/03/24 12:03:21;;;;;;;;;;;;;;;20.96;29.22;96793.59;4977858;28;1765;-76
2024/03/24 12:05:47;;;;;;;;;;;;;;;20.84;29.70;96783.22;4979096;28;1017;-76
2024/03/24 12:08:14;;;;;;;;;;;;;;;20.53;30.16;96784.09;5011151;28;995;-75
2024/03/24 12:10:40;;;;;;;;;;;;;;;20.76;29.67;96780.69;4994879;28;1198;-76
2024/03/24 12:13:06;;;;;;;;;;;;;;;20.87;29.53;96773.78;4978298;28;1986;-76
2024/03/24 12:15:31;;;;;;;;;;;;;;;21.22;28.75;96772.22;4995175;28;934;-77
2024/03/24 12:18:06;;;;;;;;;;;;;;;20.98;29.18;96771.28;4977872;28;1934;-76
2024/03/24 12:20:32;;;;;;;;;;;;;;;20.94;29.40;96779.16;5025773;28;989;-76
2024/03/24 12:22:57;;;;;;;;;;;;;;;20.45;30.18;96771.47;4997627;28;1193;-76
2024/03/24 12:25:23;;;;;;;;;;;;;;;20.84;29.61;96764.22;5013154;28;997;-76
2024/03/24 12:27:52;;;;;;;;;;;;;;;20.64;29.50;96756.19;5030419;28;1073;-76
2024/03/24 12:30:21;;;;;;;;;;;;;;;20.55;29.76;96758.97;5014039;28;954;-76
2024/03/24 12:32:47;;;;;;;;;;;;;;;20.87;29.57;96756.81;5029884;28;1980;-76
2024/03/24 12:35:14;;;;;;;;;;;;;;;20.76;29.97;96752.41;5013869;28;984;-76
2024/03/24 12:37:40;;;;;;;;;;;;;;;21.04;29.26;96750.41;4997865;28;996;-76
2024/03/24 12:40:05;;;;;;;;;;;;;;;20.99;29.16;96747.41;4975235;28;1235;-76
2024/03/24 12:42:33;;;;;;;;;;;;;;;20.73;29.60;96747.72;4975194;28;963;-76
2024/03/24 12:45:11;;;;;;;;;;;;;;;20.64;29.72;96739.22;4975253;28;957;-76
2024/03/24 12:47:36;;;;;;;;;;;;;;;20.81;29.56;96746.13;4974070;28;2031;-75
2024/03/24 12:50:05;;;;;;;;;;;;;;;20.89;29.79;96743.03;4975174;28;1016;-76
2024/03/24 12:52:31;;;;;;;;;;;;;;;21.01;29.35;96733.59;4974634;28;1903;-76
2024/03/24 12:54:57;;;;;;;;;;;;;;;20.90;29.54;96733.28;4992450;28;951;-76